createdAt,value
2019-03-23T00:01:56.379Z,99959.58
2019-03-23T00:04:25.402Z,99958.62
2019-03-23T00:06:53.239Z,99956.14
2019-03-23T00:09:20.804Z,99954.77
2019-03-23T00:11:48.477Z,99955.34
2019-03-23T00:14:18.364Z,99961.67
2019-03-23T00:16:45.927Z,99962.80
2019-03-23T00:19:13.231Z,99962.57
2019-03-23T00:21:40.485Z,99956.78
2019-03-23T00:24:07.787Z,99965.36
2019-03-23T00:26:35.059Z,99963.73
2019-03-23T00:29:02.509Z,99951.74
2019-03-23T00:31:29.955Z,99960.84
2019-03-23T00:33:57.238Z,99959.80
2019-03-23T00:36:24.479Z,99965.03
2019-03-23T00:38:51.933Z,99956.70
2019-03-23T00:41:19.191Z,99959.77
2019-03-23T00:43:46.899Z,99960.52
2019-03-23T00:46:14.309Z,99964.09
2019-03-23T00:48:42.002Z,99960.61
2019-03-23T00:51:09.294Z,99963.91
2019-03-23T00:53:36.558Z,99962.06
2019-03-23T00:56:03.875Z,99960.30
2019-03-23T00:58:31.131Z,99957.08
2019-03-23T01:00:58.516Z,99961.83
2019-03-23T01:03:27.855Z,99960.11
2019-03-23T01:05:55.123Z,99967.22
2019-03-23T01:08:22.673Z,99960.06
2019-03-23T01:10:50.052Z,99959.39
2019-03-23T01:13:17.570Z,99956.53
2019-03-23T01:15:48.224Z,99958.51
2019-03-23T01:18:16.440Z,99959.85
2019-03-23T01:20:49.579Z,99960.22
2019-03-23T01:23:15.431Z,99956.09
2019-03-23T01:25:42.728Z,99959.35
2019-03-23T01:28:10.113Z,99957.08
2019-03-23T01:30:37.655Z,99954.89
2019-03-23T01:33:05.063Z,99961.39
2019-03-23T01:35:32.570Z,99956.82
2019-03-23T01:37:59.990Z,99958.35
2019-03-23T01:40:27.588Z,99958.35
2019-03-23T01:42:54.995Z,99950.11
2019-03-23T01:45:22.401Z,99948.05
2019-03-23T01:47:49.740Z,99948.05
2019-03-23T01:50:17.393Z,99959.42
2019-03-23T01:52:44.706Z,99953.39
2019-03-23T01:55:13.973Z,99949.86
2019-03-23T01:57:42.417Z,99948.20
2019-03-23T02:00:09.783Z,99946.70
2019-03-23T02:02:37.049Z,99953.61
2019-03-23T02:05:05.368Z,99958.39
2019-03-23T02:07:32.771Z,99953.42
2019-03-23T02:10:00.037Z,99958.52
2019-03-23T02:12:27.317Z,99958.43
2019-03-23T02:14:54.572Z,99955.57
2019-03-23T02:17:22.182Z,99954.06
2019-03-23T02:19:50.074Z,99958.36
2019-03-23T02:22:17.457Z,99955.95
2019-03-23T02:24:47.093Z,99956.64
2019-03-23T02:27:14.376Z,99960.62
2019-03-23T02:29:42.054Z,99960.62
2019-03-23T02:32:09.737Z,99949.13
2019-03-23T02:34:36.983Z,99955.49
2019-03-23T02:37:04.285Z,99963.10
2019-03-23T02:39:31.815Z,99963.10
2019-03-23T02:41:59.219Z,99942.95
2019-03-23T02:44:26.718Z,99942.95
2019-03-23T02:46:53.978Z,99936.56
2019-03-23T02:49:21.325Z,99936.56
2019-03-23T02:51:48.636Z,99943.38
2019-03-23T02:54:17.450Z,99943.38
2019-03-23T02:56:44.825Z,99948.77
2019-03-23T02:59:12.307Z,99946.13
2019-03-23T03:01:39.553Z,99946.84
2019-03-23T03:04:06.928Z,99950.78
2019-03-23T03:06:34.381Z,99946.36
2019-03-23T03:09:01.702Z,99946.36
2019-03-23T03:11:29.148Z,99955.95
2019-03-23T03:13:56.427Z,99940.13
2019-03-23T03:16:27.491Z,99940.13
2019-03-23T03:18:54.993Z,99949.98
2019-03-23T03:21:23.581Z,99950.09
2019-03-23T03:23:50.972Z,99954.03
2019-03-23T03:26:18.593Z,99954.03
2019-03-23T03:28:45.918Z,99940.08
2019-03-23T03:31:13.197Z,99950.55
2019-03-23T03:33:40.519Z,99951.74
2019-03-23T03:36:07.771Z,99957.08
2019-03-23T03:38:35.668Z,99957.08
2019-03-23T03:41:02.947Z,99962.02
2019-03-23T03:43:30.239Z,99962.02
2019-03-23T03:46:00.013Z,99948.42
2019-03-23T03:48:27.243Z,99961.80
2019-03-23T03:50:54.537Z,99961.80
2019-03-23T03:53:24.745Z,99962.83
2019-03-23T03:55:52.096Z,99964.03
2019-03-23T03:58:22.306Z,99964.03
2019-03-23T04:00:49.715Z,99950.44
2019-03-23T04:03:17.090Z,99950.44
2019-03-23T04:05:46.626Z,99952.74
2019-03-23T04:08:15.622Z,99964.74
2019-03-23T04:10:42.914Z,99961.73
2019-03-23T04:13:10.158Z,99954.38
2019-03-23T04:15:37.688Z,99955.37
2019-03-23T04:18:04.965Z,99955.37
2019-03-23T04:20:32.246Z,99962.34
2019-03-23T04:22:59.634Z,99950.52
2019-03-23T04:25:29.885Z,99957.87
2019-03-23T04:27:57.159Z,99957.87
2019-03-23T04:30:24.552Z,99962.08
2019-03-23T04:32:51.810Z,99956.11
2019-03-23T04:35:19.083Z,99956.11
2019-03-23T04:37:46.469Z,99963.91
2019-03-23T04:40:14.197Z,99957.66
2019-03-23T04:42:41.521Z,99952.24
2019-03-23T04:45:08.890Z,99952.24
2019-03-23T04:47:37.163Z,99951.75
2019-03-23T04:50:04.909Z,99953.66
2019-03-23T04:52:32.261Z,99954.77
2019-03-23T04:54:59.670Z,99954.77
2019-03-23T04:57:26.962Z,99957.75
2019-03-23T04:59:54.263Z,99955.48
2019-03-23T05:02:21.655Z,99962.19
2019-03-23T05:04:48.943Z,99976.87
2019-03-23T05:07:16.598Z,99957.19
2019-03-23T05:09:43.888Z,99957.19
2019-03-23T05:12:11.494Z,99956.27
2019-03-23T05:14:38.784Z,99956.28
2019-03-23T05:17:06.040Z,99969.85
2019-03-23T05:19:33.672Z,99958.50
2019-03-23T05:22:08.140Z,99958.50
2019-03-23T05:24:35.550Z,99954.84
2019-03-23T05:27:02.928Z,99954.84
2019-03-23T05:29:30.236Z,99969.00
2019-03-23T05:31:57.612Z,99955.41
2019-03-23T05:34:24.905Z,99955.41
2019-03-23T05:36:52.180Z,99966.00
2019-03-23T05:39:19.542Z,99973.89
2019-03-23T05:41:46.849Z,99977.20
2019-03-23T05:44:14.172Z,99968.35
2019-03-23T05:46:42.776Z,99968.35
2019-03-23T05:49:10.170Z,99976.39
2019-03-23T05:51:37.603Z,99978.25
2019-03-23T05:54:04.904Z,99984.00
2019-03-23T05:56:32.203Z,99984.00
2019-03-23T05:58:59.696Z,99984.49
2019-03-23T06:01:27.152Z,99989.77
2019-03-23T06:03:54.450Z,99991.39
2019-03-23T06:06:22.132Z,99995.22
2019-03-23T06:08:54.908Z,99995.22
2019-03-23T06:11:18.988Z,99998.36
2019-03-23T06:13:47.443Z,99996.96
2019-03-23T06:16:14.842Z,99996.96
2019-03-23T06:18:42.136Z,99995.91
2019-03-23T06:21:09.430Z,100007.54
2019-03-23T06:23:36.776Z,100004.05
2019-03-23T06:26:06.418Z,100008.38
2019-03-23T06:28:34.460Z,100010.47
2019-03-23T06:31:01.736Z,100011.83
2019-03-23T06:33:29.002Z,100013.63
2019-03-23T06:35:56.323Z,100006.89
2019-03-23T06:38:23.640Z,100003.77
2019-03-23T06:40:50.948Z,99996.27
2019-03-23T06:43:18.250Z,100013.09
2019-03-23T06:45:45.717Z,100003.97
2019-03-23T06:48:13.014Z,100000.86
2019-03-23T06:50:40.770Z,100000.86
2019-03-23T06:53:08.070Z,100003.31
2019-03-23T06:55:35.436Z,100003.31
2019-03-23T06:58:02.842Z,100007.64
2019-03-23T07:00:30.354Z,100004.53
2019-03-23T07:02:57.650Z,100009.67
2019-03-23T07:05:24.952Z,100013.20
2019-03-23T07:07:52.224Z,100013.48
2019-03-23T07:10:19.645Z,100019.31
2019-03-23T07:12:46.914Z,100019.73
2019-03-23T07:15:20.010Z,100023.72
2019-03-23T07:17:44.167Z,100023.72
2019-03-23T07:20:11.577Z,100035.08
2019-03-23T07:22:38.991Z,100035.08
2019-03-23T07:25:08.454Z,100031.02
2019-03-23T07:27:36.574Z,100030.80
2019-03-23T07:30:05.799Z,100038.06
2019-03-23T07:32:33.050Z,100032.47
2019-03-23T07:35:00.437Z,100032.47
2019-03-23T07:37:27.716Z,100023.46
2019-03-23T07:39:55.091Z,100030.58
2019-03-23T07:42:22.387Z,100030.58
2019-03-23T07:44:49.635Z,100030.81
2019-03-23T07:47:17.000Z,100021.67
2019-03-23T07:49:44.632Z,100031.50
2019-03-23T07:52:11.909Z,100035.81
2019-03-23T07:54:39.215Z,100032.66
2019-03-23T07:57:06.509Z,100033.20
2019-03-23T07:59:33.814Z,100030.28
2019-03-23T08:02:02.032Z,100031.02
2019-03-23T08:04:29.315Z,100035.48
2019-03-23T08:06:56.673Z,100027.14
2019-03-23T08:09:23.993Z,100038.36
2019-03-23T08:11:51.389Z,100018.25
2019-03-23T08:14:19.892Z,100032.80
2019-03-23T08:16:47.415Z,100028.67
2019-03-23T08:19:14.854Z,100037.09
2019-03-23T08:21:42.125Z,100041.00
2019-03-23T08:24:09.461Z,100036.38
2019-03-23T08:26:36.827Z,100043.47
2019-03-23T08:29:04.244Z,100040.59
2019-03-23T08:31:31.638Z,100041.53
2019-03-23T08:34:00.389Z,100036.87
2019-03-23T08:36:27.775Z,100048.59
2019-03-23T08:38:56.138Z,100047.65
2019-03-23T08:41:23.779Z,100052.76
2019-03-23T08:43:52.713Z,100058.48
2019-03-23T08:46:22.590Z,100054.27
2019-03-23T08:48:50.293Z,100058.25
2019-03-23T08:51:18.528Z,100041.88
2019-03-23T08:53:45.989Z,100052.53
2019-03-23T08:56:13.687Z,100047.36
2019-03-23T08:58:39.681Z,100049.14
2019-03-23T09:01:06.942Z,100080.39
2019-03-23T09:03:34.217Z,100046.47
2019-03-23T09:06:01.655Z,100036.66
2019-03-23T09:08:29.497Z,100048.51
2019-03-23T09:10:56.768Z,100038.23
2019-03-23T09:13:24.168Z,100041.12
2019-03-23T09:15:51.693Z,100036.87
2019-03-23T09:18:23.143Z,100047.39
2019-03-23T09:20:52.917Z,100048.67
2019-03-23T09:23:22.755Z,100052.55
2019-03-23T09:25:50.113Z,100042.59
2019-03-23T09:28:18.627Z,100035.34
2019-03-23T09:30:47.999Z,100041.79
2019-03-23T09:33:15.442Z,100045.62
2019-03-23T09:35:42.957Z,100045.80
2019-03-23T09:38:10.784Z,100037.98
2019-03-23T09:40:40.341Z,100048.37
2019-03-23T09:43:07.643Z,100047.88
2019-03-23T09:45:34.933Z,100046.72
2019-03-23T09:48:02.278Z,100034.03
2019-03-23T09:50:29.607Z,100032.05
2019-03-23T09:53:01.073Z,100035.89
2019-03-23T09:55:28.796Z,100026.40
2019-03-23T09:57:56.305Z,100017.16
2019-03-23T10:00:23.766Z,100021.22
2019-03-23T10:02:51.289Z,100021.05
2019-03-23T10:05:18.547Z,100019.91
2019-03-23T10:07:45.836Z,100017.52
2019-03-23T10:10:21.340Z,100032.15
2019-03-23T10:12:44.607Z,100016.63
2019-03-23T10:15:12.119Z,100018.55
2019-03-23T10:17:39.805Z,100013.05
2019-03-23T10:20:07.448Z,100018.16
2019-03-23T10:22:35.045Z,100011.06
2019-03-23T10:25:04.719Z,100005.02
2019-03-23T10:27:32.507Z,100011.34
2019-03-23T10:29:59.901Z,100007.69
2019-03-23T10:32:27.646Z,100005.63
2019-03-23T10:34:57.121Z,100004.34
2019-03-23T10:37:26.114Z,100004.38
2019-03-23T10:39:53.676Z,100013.93
2019-03-23T10:42:21.029Z,99999.02
2019-03-23T10:44:48.593Z,99993.76
2019-03-23T10:47:21.056Z,99995.09
2019-03-23T10:49:50.999Z,99999.36
2019-03-23T10:52:18.976Z,99995.63
2019-03-23T10:54:57.376Z,99989.24
2019-03-23T10:57:25.228Z,99988.44
2019-03-23T10:59:52.588Z,99984.43
2019-03-23T11:02:19.896Z,99987.08
2019-03-23T11:04:47.297Z,99984.14
2019-03-23T11:07:15.500Z,99983.61
2019-03-23T11:09:43.289Z,99982.03
2019-03-23T11:12:17.109Z,99975.09
2019-03-23T11:14:47.912Z,99980.86
2019-03-23T11:17:16.245Z,99980.38
2019-03-23T11:19:46.661Z,99992.89
2019-03-23T11:22:25.125Z,99992.85
2019-03-23T11:24:55.373Z,100001.94
2019-03-23T11:27:23.013Z,100016.31
2019-03-23T11:29:52.985Z,99985.33
2019-03-23T11:32:27.653Z,99977.48
2019-03-23T11:35:00.903Z,99976.69
2019-03-23T11:37:31.341Z,99981.77
2019-03-23T11:40:03.575Z,99975.80
2019-03-23T11:42:31.501Z,99983.25
2019-03-23T11:44:59.467Z,99981.16
2019-03-23T11:47:31.283Z,99974.09
2019-03-23T11:50:07.305Z,99973.48
2019-03-23T11:52:39.841Z,99977.09
2019-03-23T11:55:12.412Z,99965.89
2019-03-23T11:57:44.469Z,99995.03
2019-03-23T12:00:17.072Z,99971.92
2019-03-23T12:02:44.691Z,99981.59
2019-03-23T12:05:12.076Z,99973.66
2019-03-23T12:07:42.613Z,99975.29
2019-03-23T12:10:20.477Z,99981.27
2019-03-23T12:12:54.899Z,99971.80
2019-03-23T12:15:24.899Z,99975.34
2019-03-23T12:17:52.594Z,99971.28
2019-03-23T12:20:22.863Z,99969.55
2019-03-23T12:22:57.933Z,99961.73
2019-03-23T12:25:28.972Z,99964.27
2019-03-23T12:28:09.100Z,99965.34
2019-03-23T12:30:39.066Z,99959.12
2019-03-23T12:33:10.209Z,99958.98
2019-03-23T12:35:38.878Z,99951.09
2019-03-23T12:38:06.241Z,99950.56
2019-03-23T12:40:33.635Z,99939.83
2019-03-23T12:43:04.273Z,99938.73
2019-03-23T12:45:32.861Z,99961.23
2019-03-23T12:48:06.593Z,99943.06
2019-03-23T12:50:36.486Z,99938.97
2019-03-23T12:53:06.949Z,99938.22
2019-03-23T12:55:43.063Z,99938.28
2019-03-23T12:58:22.854Z,99938.88
2019-03-23T13:01:01.893Z,99922.28
2019-03-23T13:03:39.350Z,99929.06
2019-03-23T13:06:17.071Z,99912.31
2019-03-23T13:08:47.379Z,99929.24
2019-03-23T13:11:23.286Z,99927.56
2019-03-23T13:13:45.335Z,99943.77
2019-03-23T13:16:12.573Z,99917.01
2019-03-23T13:18:39.874Z,99913.66
2019-03-23T13:21:07.811Z,99907.59
2019-03-23T13:23:35.367Z,99902.00
2019-03-23T13:26:03.451Z,99909.47
2019-03-23T13:28:30.778Z,99901.52
2019-03-23T13:30:59.997Z,99898.06
2019-03-23T13:33:27.274Z,99897.98
2019-03-23T13:35:54.638Z,99896.23
2019-03-23T13:38:21.995Z,99896.05
2019-03-23T13:40:49.297Z,99894.53
2019-03-23T13:43:16.550Z,99890.15
2019-03-23T13:45:43.940Z,99886.91
2019-03-23T13:48:11.432Z,99883.84
2019-03-23T13:50:38.708Z,99883.45
2019-03-23T13:53:06.018Z,99884.63
2019-03-23T13:55:33.730Z,99884.22
2019-03-23T13:58:08.613Z,99880.08
2019-03-23T14:00:35.972Z,99876.81
2019-03-23T14:03:03.641Z,99882.09
2019-03-23T14:05:30.897Z,99868.05
2019-03-23T14:07:58.276Z,99875.16
2019-03-23T14:10:28.012Z,99869.69
2019-03-23T14:12:55.431Z,99865.69
2019-03-23T14:15:23.494Z,99864.74
2019-03-23T14:17:50.780Z,99862.64
2019-03-23T14:20:20.460Z,99868.35
2019-03-23T14:22:47.635Z,99858.93
2019-03-23T14:25:14.884Z,99861.20
2019-03-23T14:27:42.175Z,99855.52
2019-03-23T14:30:09.475Z,99849.30
2019-03-23T14:32:36.753Z,99855.57
2019-03-23T14:35:04.324Z,99847.23
2019-03-23T14:37:31.742Z,99850.38
2019-03-23T14:39:58.997Z,99855.55
2019-03-23T14:42:26.969Z,99846.56
2019-03-23T14:44:57.519Z,99842.00
2019-03-23T14:47:24.797Z,99836.60
2019-03-23T14:49:52.134Z,99843.18
2019-03-23T14:52:19.707Z,99842.32
2019-03-23T14:54:46.979Z,99844.48
2019-03-23T14:57:14.991Z,99840.36
2019-03-23T14:59:42.756Z,99841.95
2019-03-23T15:02:10.408Z,99838.41
2019-03-23T15:04:37.897Z,99832.83
2019-03-23T15:07:05.378Z,99839.64
2019-03-23T15:09:33.132Z,99835.83
2019-03-23T15:12:02.818Z,99837.47
2019-03-23T15:14:30.557Z,99839.84
2019-03-23T15:17:00.100Z,99828.69
2019-03-23T15:19:27.686Z,99831.74
2019-03-23T15:21:55.161Z,99835.19
2019-03-23T15:24:22.982Z,99835.66
2019-03-23T15:26:53.179Z,99830.77
2019-03-23T15:29:22.572Z,99837.58
2019-03-23T15:31:50.074Z,99840.98
2019-03-23T15:34:17.866Z,99821.32
2019-03-23T15:36:45.135Z,99826.47
2019-03-23T15:39:12.392Z,99833.67
2019-03-23T15:41:39.930Z,99830.94
2019-03-23T15:44:07.201Z,99832.31
2019-03-23T15:46:34.494Z,99829.66
2019-03-23T15:49:01.753Z,99828.55
2019-03-23T15:51:29.120Z,99840.61
2019-03-23T15:53:58.522Z,99843.86
2019-03-23T15:56:25.869Z,99834.88
2019-03-23T15:58:53.145Z,99834.94
2019-03-23T16:01:23.308Z,99845.77
2019-03-23T16:03:50.621Z,99852.73
2019-03-23T16:06:18.158Z,99849.19
2019-03-23T16:08:45.547Z,99855.78
2019-03-23T16:11:12.804Z,99849.67
2019-03-23T16:13:40.604Z,99849.42
2019-03-23T16:16:08.018Z,99861.67
2019-03-23T16:18:35.422Z,99857.20
2019-03-23T16:21:02.804Z,99865.77
2019-03-23T16:23:30.450Z,99873.45
2019-03-23T16:25:57.771Z,99874.31
2019-03-23T16:28:25.366Z,99876.55
2019-03-23T16:30:52.716Z,99885.55
2019-03-23T16:33:21.924Z,99886.94
2019-03-23T16:35:49.583Z,99897.56
2019-03-23T16:38:16.933Z,99903.18
2019-03-23T16:40:44.785Z,99905.48
2019-03-23T16:43:12.156Z,99914.06
2019-03-23T16:45:39.929Z,99912.48
2019-03-23T16:48:07.230Z,99909.60
2019-03-23T16:50:34.708Z,99921.53
2019-03-23T16:53:01.990Z,99919.39
2019-03-23T16:55:29.236Z,99915.25
2019-03-23T16:57:56.492Z,99919.01
2019-03-23T17:00:34.212Z,99924.68
2019-03-23T17:03:02.504Z,99930.27
2019-03-23T17:05:30.488Z,99919.21
2019-03-23T17:07:57.776Z,99932.20
2019-03-23T17:10:25.460Z,99927.06
2019-03-23T17:12:55.527Z,99931.92
2019-03-23T17:15:21.914Z,99936.98
2019-03-23T17:17:49.163Z,99935.16
2019-03-23T17:20:16.471Z,99938.89
2019-03-23T17:22:43.786Z,99939.42
2019-03-23T17:25:11.035Z,99935.72
2019-03-23T17:27:39.578Z,99978.03
2019-03-23T17:30:09.557Z,99958.62
2019-03-23T17:32:39.646Z,99950.63
2019-03-23T17:35:07.027Z,99952.20
2019-03-23T17:37:34.324Z,99950.36
2019-03-23T17:40:01.650Z,99954.06
2019-03-23T17:42:28.946Z,99953.80
2019-03-23T17:44:56.224Z,99959.93
2019-03-23T17:47:23.490Z,99965.01
2019-03-23T17:49:50.762Z,99972.69
2019-03-23T17:52:18.046Z,99982.51
2019-03-23T17:54:45.290Z,99974.28
2019-03-23T17:57:12.549Z,99981.73
2019-03-23T17:59:39.868Z,99988.77
2019-03-23T18:02:07.406Z,99990.09
2019-03-23T18:04:36.761Z,99984.70
2019-03-23T18:07:05.379Z,99992.45
2019-03-23T18:09:33.089Z,99036.83
2019-03-23T18:12:03.806Z,99987.07
2019-03-23T18:14:31.542Z,99993.89
2019-03-23T18:16:58.788Z,99997.84
2019-03-23T18:19:26.774Z,99997.97
2019-03-23T18:21:54.582Z,99993.85
2019-03-23T18:24:22.014Z,99997.19
2019-03-23T18:26:49.619Z,99989.75
2019-03-23T18:29:16.866Z,99995.30
2019-03-23T18:31:44.452Z,99992.38
2019-03-23T18:34:12.066Z,99999.50
2019-03-23T18:36:39.539Z,100003.01
2019-03-23T18:39:07.376Z,100011.09
2019-03-23T18:41:38.038Z,100002.02
2019-03-23T18:44:15.609Z,99998.64
2019-03-23T18:46:38.816Z,100005.82
2019-03-23T18:49:06.026Z,100016.61
2019-03-23T18:51:33.467Z,100014.50
2019-03-23T18:54:00.742Z,100023.85
2019-03-23T18:56:29.385Z,100031.52
2019-03-23T18:58:57.116Z,100028.41
2019-03-23T19:01:27.589Z,100033.48
2019-03-23T19:03:56.448Z,100037.66
2019-03-23T19:06:24.257Z,100038.38
2019-03-23T19:08:51.548Z,100036.37
2019-03-23T19:11:28.633Z,100072.13
2019-03-23T19:13:56.091Z,100068.91
2019-03-23T19:16:25.069Z,100041.80
2019-03-23T19:18:52.516Z,100046.87
2019-03-23T19:21:23.497Z,100046.83
2019-03-23T19:23:54.173Z,100055.70
2019-03-23T19:26:23.104Z,100073.02
2019-03-23T19:28:50.540Z,100062.03
2019-03-23T19:31:21.052Z,100057.25
2019-03-23T19:33:51.142Z,100054.48
2019-03-23T19:36:20.548Z,100058.06
2019-03-23T19:38:47.858Z,100059.30
2019-03-23T19:41:16.319Z,100062.11
2019-03-23T19:43:49.786Z,100056.20
2019-03-23T19:46:13.994Z,100047.31
2019-03-23T19:48:41.244Z,100048.16
2019-03-23T19:51:08.517Z,100044.66
2019-03-23T19:53:36.800Z,100046.79
2019-03-23T19:56:04.830Z,100051.05
2019-03-23T19:58:32.213Z,100051.73
2019-03-23T20:01:00.496Z,100042.00
2019-03-23T20:03:30.329Z,100043.40
2019-03-23T20:05:58.001Z,100049.59
2019-03-23T20:08:25.732Z,100045.13
2019-03-23T20:10:52.978Z,100045.45
2019-03-23T20:13:29.840Z,100049.88
2019-03-23T20:16:00.115Z,100044.59
2019-03-23T20:18:27.568Z,100055.12
2019-03-23T20:20:55.724Z,100043.66
2019-03-23T20:23:25.021Z,100055.98
2019-03-23T20:25:57.934Z,100040.72
2019-03-23T20:28:31.088Z,100076.73
2019-03-23T20:31:00.088Z,100042.73
2019-03-23T20:33:27.486Z,100046.41
2019-03-23T20:35:55.587Z,100048.09
2019-03-23T20:38:24.293Z,100052.36
2019-03-23T20:40:51.935Z,100059.38
2019-03-23T20:43:19.493Z,100081.37
2019-03-23T20:45:51.909Z,100059.44
2019-03-23T20:48:20.235Z,100055.81
2019-03-23T20:50:48.025Z,100059.58
2019-03-23T20:53:26.847Z,100061.64
2019-03-23T20:55:56.445Z,100075.92
2019-03-23T20:58:26.257Z,100059.48
2019-03-23T21:00:58.768Z,100060.52
2019-03-23T21:03:28.944Z,100051.75
2019-03-23T21:05:56.403Z,100053.84
2019-03-23T21:08:28.749Z,100048.55
2019-03-23T21:10:58.289Z,100094.30
2019-03-23T21:13:25.627Z,100042.69
2019-03-23T21:15:55.505Z,100040.77
2019-03-23T21:18:23.674Z,100065.14
2019-03-23T21:20:53.567Z,100043.10
2019-03-23T21:23:22.747Z,100047.41
2019-03-23T21:25:50.088Z,100045.28
2019-03-23T21:28:21.865Z,100036.13
2019-03-23T21:30:53.887Z,100038.38
2019-03-23T21:33:32.106Z,100068.23
2019-03-23T21:36:01.710Z,100038.62
2019-03-23T21:38:31.539Z,100055.02
2019-03-23T21:41:01.728Z,100072.97
2019-03-23T21:43:32.797Z,100033.13
2019-03-23T21:46:08.940Z,100040.08
2019-03-23T21:48:38.739Z,100039.19
2019-03-23T21:51:08.406Z,100042.09
2019-03-23T21:53:38.911Z,100051.06
2019-03-23T21:56:09.658Z,100026.25
2019-03-23T21:58:39.334Z,100045.28
2019-03-23T22:01:14.187Z,100023.90
2019-03-23T22:03:44.221Z,100021.31
2019-03-23T22:06:12.676Z,100015.53
2019-03-23T22:08:42.363Z,100014.20
2019-03-23T22:11:12.597Z,100011.41
2019-03-23T22:13:46.129Z,100019.92
2019-03-23T22:16:17.433Z,100006.62
2019-03-23T22:18:56.912Z,100029.34
2019-03-23T22:21:26.945Z,100005.70
2019-03-23T22:23:55.607Z,100005.55
2019-03-23T22:26:22.999Z,100024.59
2019-03-23T22:28:53.479Z,100009.74
2019-03-23T22:31:21.259Z,100010.06
2019-03-23T22:33:50.231Z,100001.98
2019-03-23T22:36:19.737Z,100052.84
2019-03-23T22:38:48.823Z,100006.89
2019-03-23T22:41:16.893Z,100007.02
2019-03-23T22:43:44.180Z,100011.42
2019-03-23T22:46:11.933Z,99989.52
2019-03-23T22:48:42.346Z,99994.93
2019-03-23T22:51:10.851Z,99991.02
2019-03-23T22:53:40.622Z,100033.02
2019-03-23T22:56:12.640Z,99985.41
2019-03-23T22:58:48.527Z,99984.91
2019-03-23T23:01:15.811Z,100016.09
2019-03-23T23:03:44.807Z,99971.30
2019-03-23T23:06:21.956Z,99973.47
2019-03-23T23:08:59.197Z,99971.08
2019-03-23T23:11:27.087Z,99973.27
2019-03-23T23:13:54.528Z,99971.76
2019-03-23T23:16:25.854Z,99970.70
2019-03-23T23:18:53.235Z,99985.25
2019-03-23T23:21:20.498Z,99986.38
2019-03-23T23:23:47.837Z,99964.45
2019-03-23T23:26:15.300Z,99960.49
2019-03-23T23:28:42.734Z,99990.69
2019-03-23T23:31:10.601Z,99991.59
2019-03-23T23:33:38.044Z,99951.75
2019-03-23T23:36:05.327Z,99967.83
2019-03-23T23:38:32.656Z,99945.91
2019-03-23T23:41:01.432Z,99954.63
2019-03-23T23:43:28.919Z,99949.95
2019-03-23T23:45:56.234Z,99951.42
2019-03-23T23:48:23.550Z,99948.55
2019-03-23T23:50:50.929Z,99956.30
2019-03-23T23:53:18.788Z,99956.68
2019-03-23T23:55:46.616Z,99956.88
2019-03-23T23:58:14.105Z,99958.80
